sensor_id;sensor_type;location;lat;lon;timestamp;P1;durP1;ratioP1;P2;durP2;ratioP2
71038;SDS011;58692;43.212;27.908;2024-02-23T00:01:03;27.80;;;15.00;;
71038;SDS011;58692;43.212;27.908;2024-02-23T00:03:28;27.42;;;14.18;;
71038;SDS011;58692;43.212;27.908;2024-02-23T00:05:54;26.77;;;14.37;;
71038;SDS011;58692;43.212;27.908;2024-02-23T00:08:20;26.42;;;14.85;;
71038;SDS011;58692;43.212;27.908;2024-02-23T00:10:45;27.93;;;14.10;;
71038;SDS011;58692;43.212;27.908;2024-02-23T00:13:11;25.95;;;13.55;;
71038;SDS011;58692;43.212;27.908;2024-02-23T00:15:37;27.27;;;14.70;;
71038;SDS011;58692;43.212;27.908;2024-02-23T00:18:02;24.43;;;13.23;;
71038;SDS011;58692;43.212;27.908;2024-02-23T00:20:29;26.85;;;15.00;;
71038;SDS011;58692;43.212;27.908;2024-02-23T00:22:55;25.42;;;13.30;;
71038;SDS011;58692;43.212;27.908;2024-02-23T00:25:20;27.58;;;14.18;;
71038;SDS011;58692;43.212;27.908;2024-02-23T00:27:46;26.17;;;14.83;;
71038;SDS011;58692;43.212;27.908;2024-02-23T00:30:12;25.80;;;13.77;;
71038;SDS011;58692;43.212;27.908;2024-02-23T00:32:38;24.47;;;13.30;;
71038;SDS011;58692;43.212;27.908;2024-02-23T00:35:04;28.90;;;14.75;;
71038;SDS011;58692;43.212;27.908;2024-02-23T00:37:30;27.50;;;13.82;;
71038;SDS011;58692;43.212;27.908;2024-02-23T00:40:01;24.77;;;13.80;;
71038;SDS011;58692;43.212;27.908;2024-02-23T00:42:29;27.08;;;14.38;;
71038;SDS011;58692;43.212;27.908;2024-02-23T00:44:55;27.60;;;14.90;;
71038;SDS011;58692;43.212;27.908;2024-02-23T00:47:21;28.27;;;14.17;;
71038;SDS011;58692;43.212;27.908;2024-02-23T00:49:46;25.17;;;13.25;;
71038;SDS011;58692;43.212;27.908;2024-02-23T00:52:12;25.77;;;13.50;;
71038;SDS011;58692;43.212;27.908;2024-02-23T00:54:37;26.13;;;13.50;;
71038;SDS011;58692;43.212;27.908;2024-02-23T00:57:03;23.90;;;13.40;;
71038;SDS011;58692;43.212;27.908;2024-02-23T00:59:28;24.93;;;13.57;;
71038;SDS011;58692;43.212;27.908;2024-02-23T01:01:54;28.83;;;14.43;;
71038;SDS011;58692;43.212;27.908;2024-02-23T01:04:20;26.37;;;13.77;;
71038;SDS011;58692;43.212;27.908;2024-02-23T01:06:46;25.13;;;13.82;;
71038;SDS011;58692;43.212;27.908;2024-02-23T01:09:12;25.77;;;13.63;;
71038;SDS011;58692;43.212;27.908;2024-02-23T01:11:38;24.88;;;13.45;;
71038;SDS011;58692;43.212;27.908;2024-02-23T01:14:03;27.70;;;13.52;;
71038;SDS011;58692;43.212;27.908;2024-02-23T01:16:31;26.33;;;13.43;;
71038;SDS011;58692;43.212;27.908;2024-02-23T01:18:57;26.02;;;13.00;;
71038;SDS011;58692;43.212;27.908;2024-02-23T01:21:23;26.35;;;13.48;;
71038;SDS011;58692;43.212;27.908;2024-02-23T01:23:48;23.27;;;12.53;;
71038;SDS011;58692;43.212;27.908;2024-02-23T01:26:14;23.73;;;12.23;;
71038;SDS011;58692;43.212;27.908;2024-02-23T01:28:40;25.25;;;12.70;;
71038;SDS011;58692;43.212;27.908;2024-02-23T01:31:08;25.80;;;13.20;;
71038;SDS011;58692;43.212;27.908;2024-02-23T01:33:36;24.63;;;12.88;;
71038;SDS011;58692;43.212;27.908;2024-02-23T01:36:04;23.42;;;12.95;;
71038;SDS011;58692;43.212;27.908;2024-02-23T01:38:30;22.75;;;13.18;;
71038;SDS011;58692;43.212;27.908;2024-02-23T01:40:57;25.17;;;13.03;;
71038;SDS011;58692;43.212;27.908;2024-02-23T01:43:23;25.05;;;12.52;;
71038;SDS011;58692;43.212;27.908;2024-02-23T01:45:49;24.27;;;13.13;;
71038;SDS011;58692;43.212;27.908;2024-02-23T01:48:15;24.97;;;12.47;;
71038;SDS011;58692;43.212;27.908;2024-02-23T01:50:41;23.13;;;12.20;;
71038;SDS011;58692;43.212;27.908;2024-02-23T01:53:08;26.15;;;13.15;;
71038;SDS011;58692;43.212;27.908;2024-02-23T01:55:35;24.02;;;12.30;;
71038;SDS011;58692;43.212;27.908;2024-02-23T01:58:02;23.23;;;12.13;;
71038;SDS011;58692;43.212;27.908;2024-02-23T02:00:31;24.27;;;12.07;;
71038;SDS011;58692;43.212;27.908;2024-02-23T02:02:57;23.67;;;12.25;;
71038;SDS011;58692;43.212;27.908;2024-02-23T02:05:23;25.15;;;12.95;;
71038;SDS011;58692;43.212;27.908;2024-02-23T02:07:49;25.53;;;13.00;;
71038;SDS011;58692;43.212;27.908;2024-02-23T02:10:18;23.67;;;12.82;;
71038;SDS011;58692;43.212;27.908;2024-02-23T02:12:45;24.75;;;13.15;;
71038;SDS011;58692;43.212;27.908;2024-02-23T02:15:11;27.33;;;13.37;;
71038;SDS011;58692;43.212;27.908;2024-02-23T02:17:37;25.88;;;12.63;;
71038;SDS011;58692;43.212;27.908;2024-02-23T02:20:03;25.60;;;12.67;;
71038;SDS011;58692;43.212;27.908;2024-02-23T02:22:31;28.38;;;14.85;;
71038;SDS011;58692;43.212;27.908;2024-02-23T02:24:58;26.88;;;13.38;;
71038;SDS011;58692;43.212;27.908;2024-02-23T02:27:24;26.00;;;12.90;;
71038;SDS011;58692;43.212;27.908;2024-02-23T02:29:50;25.05;;;13.27;;
71038;SDS011;58692;43.212;27.908;2024-02-23T02:32:16;29.15;;;14.10;;
71038;SDS011;58692;43.212;27.908;2024-02-23T02:34:42;27.20;;;14.20;;
71038;SDS011;58692;43.212;27.908;2024-02-23T02:37:08;26.35;;;13.75;;
71038;SDS011;58692;43.212;27.908;2024-02-23T02:39:33;28.37;;;14.17;;
71038;SDS011;58692;43.212;27.908;2024-02-23T02:41:59;26.40;;;13.88;;
71038;SDS011;58692;43.212;27.908;2024-02-23T02:44:25;38.17;;;15.10;;
71038;SDS011;58692;43.212;27.908;2024-02-23T02:46:55;26.30;;;14.45;;
71038;SDS011;58692;43.212;27.908;2024-02-23T02:49:21;25.98;;;15.15;;
71038;SDS011;58692;43.212;27.908;2024-02-23T02:51:47;29.80;;;15.03;;
71038;SDS011;58692;43.212;27.908;2024-02-23T02:54:12;29.23;;;15.10;;
71038;SDS011;58692;43.212;27.908;2024-02-23T02:56:47;29.57;;;14.27;;
71038;SDS011;58692;43.212;27.908;2024-02-23T02:59:13;25.17;;;14.35;;
71038;SDS011;58692;43.212;27.908;2024-02-23T03:01:39;27.03;;;14.27;;
71038;SDS011;58692;43.212;27.908;2024-02-23T03:04:05;23.95;;;13.45;;
71038;SDS011;58692;43.212;27.908;2024-02-23T03:06:30;26.05;;;13.13;;
71038;SDS011;58692;43.212;27.908;2024-02-23T03:08:56;26.10;;;13.93;;
71038;SDS011;58692;43.212;27.908;2024-02-23T03:11:22;25.27;;;13.88;;
71038;SDS011;58692;43.212;27.908;2024-02-23T03:13:47;25.97;;;14.13;;
71038;SDS011;58692;43.212;27.908;2024-02-23T03:16:15;25.75;;;13.38;;
71038;SDS011;58692;43.212;27.908;2024-02-23T03:18:42;26.63;;;13.30;;
71038;SDS011;58692;43.212;27.908;2024-02-23T03:21:07;26.45;;;13.35;;
71038;SDS011;58692;43.212;27.908;2024-02-23T03:23:34;28.55;;;15.05;;
71038;SDS011;58692;43.212;27.908;2024-02-23T03:26:00;26.50;;;14.03;;
71038;SDS011;58692;43.212;27.908;2024-02-23T03:28:26;24.30;;;13.05;;
71038;SDS011;58692;43.212;27.908;2024-02-23T03:30:52;26.80;;;13.35;;
71038;SDS011;58692;43.212;27.908;2024-02-23T03:33:17;28.00;;;13.60;;
71038;SDS011;58692;43.212;27.908;2024-02-23T03:35:43;24.30;;;13.73;;
71038;SDS011;58692;43.212;27.908;2024-02-23T03:38:08;24.58;;;13.35;;
71038;SDS011;58692;43.212;27.908;2024-02-23T03:40:34;26.33;;;13.83;;
71038;SDS011;58692;43.212;27.908;2024-02-23T03:43:01;24.58;;;12.90;;
71038;SDS011;58692;43.212;27.908;2024-02-23T03:45:27;25.52;;;13.85;;
71038;SDS011;58692;43.212;27.908;2024-02-23T03:47:53;27.50;;;12.87;;
71038;SDS011;58692;43.212;27.908;2024-02-23T03:50:18;24.38;;;12.75;;
71038;SDS011;58692;43.212;27.908;2024-02-23T03:52:44;29.10;;;13.97;;
71038;SDS011;58692;43.212;27.908;2024-02-23T03:55:10;27.60;;;13.60;;
71038;SDS011;58692;43.212;27.908;2024-02-23T03:57:36;26.53;;;12.93;;
71038;SDS011;58692;43.212;27.908;2024-02-23T04:00:02;25.92;;;13.50;;
71038;SDS011;58692;43.212;27.908;2024-02-23T04:02:28;27.08;;;13.27;;
71038;SDS011;58692;43.212;27.908;2024-02-23T04:04:54;26.13;;;13.83;;
71038;SDS011;58692;43.212;27.908;2024-02-23T04:07:19;25.63;;;13.10;;
71038;SDS011;58692;43.212;27.908;2024-02-23T04:09:45;28.13;;;13.77;;
71038;SDS011;58692;43.212;27.908;2024-02-23T04:12:17;27.45;;;15.00;;
71038;SDS011;58692;43.212;27.908;2024-02-23T04:14:44;26.67;;;14.88;;
71038;SDS011;58692;43.212;27.908;2024-02-23T04:17:10;28.05;;;14.02;;
71038;SDS011;58692;43.212;27.908;2024-02-23T04:19:37;27.70;;;14.57;;
71038;SDS011;58692;43.212;27.908;2024-02-23T04:22:02;26.88;;;13.70;;
71038;SDS011;58692;43.212;27.908;2024-02-23T04:24:29;30.02;;;14.75;;
71038;SDS011;58692;43.212;27.908;2024-02-23T04:26:55;31.17;;;15.33;;
71038;SDS011;58692;43.212;27.908;2024-02-23T04:29:20;30.23;;;14.88;;
71038;SDS011;58692;43.212;27.908;2024-02-23T04:31:46;27.67;;;14.63;;
71038;SDS011;58692;43.212;27.908;2024-02-23T04:34:11;29.55;;;14.43;;
71038;SDS011;58692;43.212;27.908;2024-02-23T04:36:37;30.57;;;15.07;;
71038;SDS011;58692;43.212;27.908;2024-02-23T04:39:02;30.20;;;14.63;;
71038;SDS011;58692;43.212;27.908;2024-02-23T04:41:29;29.75;;;15.15;;
71038;SDS011;58692;43.212;27.908;2024-02-23T04:43:54;29.88;;;14.98;;
71038;SDS011;58692;43.212;27.908;2024-02-23T04:46:25;28.40;;;15.33;;
71038;SDS011;58692;43.212;27.908;2024-02-23T04:48:51;30.00;;;15.90;;
71038;SDS011;58692;43.212;27.908;2024-02-23T04:51:16;30.95;;;15.65;;
71038;SDS011;58692;43.212;27.908;2024-02-23T04:53:42;31.60;;;16.40;;
71038;SDS011;58692;43.212;27.908;2024-02-23T04:56:08;36.30;;;18.20;;
71038;SDS011;58692;43.212;27.908;2024-02-23T04:58:33;36.90;;;18.20;;
71038;SDS011;58692;43.212;27.908;2024-02-23T05:00:59;36.35;;;17.52;;
71038;SDS011;58692;43.212;27.908;2024-02-23T05:03:25;36.60;;;17.83;;
71038;SDS011;58692;43.212;27.908;2024-02-23T05:05:51;35.97;;;17.50;;
71038;SDS011;58692;43.212;27.908;2024-02-23T05:08:19;35.88;;;18.27;;
71038;SDS011;58692;43.212;27.908;2024-02-23T05:10:46;37.63;;;17.63;;
71038;SDS011;58692;43.212;27.908;2024-02-23T05:13:12;39.15;;;19.05;;
71038;SDS011;58692;43.212;27.908;2024-02-23T05:15:38;35.30;;;17.70;;
71038;SDS011;58692;43.212;27.908;2024-02-23T05:18:04;38.05;;;18.38;;
71038;SDS011;58692;43.212;27.908;2024-02-23T05:20:30;34.58;;;17.05;;
71038;SDS011;58692;43.212;27.908;2024-02-23T05:22:56;33.40;;;18.10;;
71038;SDS011;58692;43.212;27.908;2024-02-23T05:25:21;37.17;;;19.67;;
71038;SDS011;58692;43.212;27.908;2024-02-23T05:27:47;36.47;;;19.50;;
71038;SDS011;58692;43.212;27.908;2024-02-23T05:30:13;37.43;;;21.13;;
71038;SDS011;58692;43.212;27.908;2024-02-23T05:32:38;35.80;;;19.00;;
71038;SDS011;58692;43.212;27.908;2024-02-23T05:35:04;33.97;;;19.07;;
71038;SDS011;58692;43.212;27.908;2024-02-23T05:37:30;35.03;;;20.35;;
71038;SDS011;58692;43.212;27.908;2024-02-23T05:39:56;35.08;;;20.90;;
71038;SDS011;58692;43.212;27.908;2024-02-23T05:42:24;39.43;;;20.43;;
71038;SDS011;58692;43.212;27.908;2024-02-23T05:44:50;34.38;;;20.17;;
71038;SDS011;58692;43.212;27.908;2024-02-23T05:47:16;35.15;;;19.30;;
71038;SDS011;58692;43.212;27.908;2024-02-23T05:49:46;32.67;;;18.83;;
71038;SDS011;58692;43.212;27.908;2024-02-23T05:52:11;35.67;;;18.30;;
71038;SDS011;58692;43.212;27.908;2024-02-23T05:54:37;29.80;;;17.60;;
71038;SDS011;58692;43.212;27.908;2024-02-23T05:57:03;31.08;;;17.48;;
71038;SDS011;58692;43.212;27.908;2024-02-23T05:59:28;32.57;;;17.03;;
71038;SDS011;58692;43.212;27.908;2024-02-23T06:01:54;34.38;;;17.27;;
71038;SDS011;58692;43.212;27.908;2024-02-23T06:04:22;31.88;;;15.60;;
71038;SDS011;58692;43.212;27.908;2024-02-23T06:06:48;28.90;;;15.33;;
71038;SDS011;58692;43.212;27.908;2024-02-23T06:09:14;26.98;;;15.35;;
71038;SDS011;58692;43.212;27.908;2024-02-23T06:11:40;27.10;;;15.57;;
71038;SDS011;58692;43.212;27.908;2024-02-23T06:14:07;27.67;;;15.18;;
71038;SDS011;58692;43.212;27.908;2024-02-23T06:16:33;30.97;;;15.87;;
71038;SDS011;58692;43.212;27.908;2024-02-23T06:18:59;28.02;;;15.05;;
71038;SDS011;58692;43.212;27.908;2024-02-23T06:21:24;29.45;;;16.55;;
71038;SDS011;58692;43.212;27.908;2024-02-23T06:23:50;26.40;;;14.60;;
71038;SDS011;58692;43.212;27.908;2024-02-23T06:26:16;24.20;;;14.47;;
71038;SDS011;58692;43.212;27.908;2024-02-23T06:28:41;25.30;;;13.90;;
71038;SDS011;58692;43.212;27.908;2024-02-23T06:31:07;20.70;;;12.73;;
71038;SDS011;58692;43.212;27.908;2024-02-23T06:33:34;22.43;;;12.93;;
71038;SDS011;58692;43.212;27.908;2024-02-23T06:35:59;24.27;;;13.30;;
71038;SDS011;58692;43.212;27.908;2024-02-23T06:38:25;22.27;;;13.32;;
71038;SDS011;58692;43.212;27.908;2024-02-23T06:40:51;22.23;;;11.60;;
71038;SDS011;58692;43.212;27.908;2024-02-23T06:43:17;24.48;;;12.63;;
71038;SDS011;58692;43.212;27.908;2024-02-23T06:45:44;24.92;;;13.15;;
71038;SDS011;58692;43.212;27.908;2024-02-23T06:48:09;29.27;;;15.30;;
71038;SDS011;58692;43.212;27.908;2024-02-23T06:50:35;26.52;;;14.18;;
71038;SDS011;58692;43.212;27.908;2024-02-23T06:53:01;22.57;;;12.93;;
71038;SDS011;58692;43.212;27.908;2024-02-23T06:55:27;27.67;;;13.88;;
71038;SDS011;58692;43.212;27.908;2024-02-23T06:57:53;21.45;;;12.60;;
71038;SDS011;58692;43.212;27.908;2024-02-23T07:00:20;23.60;;;12.30;;
71038;SDS011;58692;43.212;27.908;2024-02-23T07:02:47;20.63;;;11.82;;
71038;SDS011;58692;43.212;27.908;2024-02-23T07:05:13;21.47;;;12.27;;
71038;SDS011;58692;43.212;27.908;2024-02-23T07:07:39;19.75;;;11.50;;
71038;SDS011;58692;43.212;27.908;2024-02-23T07:10:08;22.80;;;11.98;;
71038;SDS011;58692;43.212;27.908;2024-02-23T07:12:34;23.70;;;11.82;;
71038;SDS011;58692;43.212;27.908;2024-02-23T07:15:00;23.53;;;12.33;;
71038;SDS011;58692;43.212;27.908;2024-02-23T07:17:32;22.92;;;12.75;;
71038;SDS011;58692;43.212;27.908;2024-02-23T07:20:15;23.92;;;12.48;;
71038;SDS011;58692;43.212;27.908;2024-02-23T07:22:45;22.23;;;12.13;;
71038;SDS011;58692;43.212;27.908;2024-02-23T07:25:11;22.30;;;12.23;;
71038;SDS011;58692;43.212;27.908;2024-02-23T07:27:41;21.57;;;11.40;;
71038;SDS011;58692;43.212;27.908;2024-02-23T07:30:07;20.88;;;12.10;;
71038;SDS011;58692;43.212;27.908;2024-02-23T07:32:33;22.75;;;12.00;;
71038;SDS011;58692;43.212;27.908;2024-02-23T07:34:58;21.17;;;11.90;;
71038;SDS011;58692;43.212;27.908;2024-02-23T07:37:26;22.35;;;12.60;;
71038;SDS011;58692;43.212;27.908;2024-02-23T07:40:04;22.13;;;12.07;;
71038;SDS011;58692;43.212;27.908;2024-02-23T07:42:32;22.52;;;12.75;;
71038;SDS011;58692;43.212;27.908;2024-02-23T07:45:00;23.17;;;13.20;;
71038;SDS011;58692;43.212;27.908;2024-02-23T07:47:29;21.13;;;12.05;;
71038;SDS011;58692;43.212;27.908;2024-02-23T07:49:56;21.27;;;12.40;;
71038;SDS011;58692;43.212;27.908;2024-02-23T07:52:22;24.00;;;12.82;;
71038;SDS011;58692;43.212;27.908;2024-02-23T07:54:49;24.17;;;13.27;;
71038;SDS011;58692;43.212;27.908;2024-02-23T07:57:17;24.50;;;12.02;;
71038;SDS011;58692;43.212;27.908;2024-02-23T07:59:44;22.40;;;12.27;;
71038;SDS011;58692;43.212;27.908;2024-02-23T08:02:12;20.40;;;11.80;;
71038;SDS011;58692;43.212;27.908;2024-02-23T08:04:37;20.33;;;12.20;;
71038;SDS011;58692;43.212;27.908;2024-02-23T08:07:03;21.70;;;12.67;;
71038;SDS011;58692;43.212;27.908;2024-02-23T08:09:29;21.35;;;12.20;;
71038;SDS011;58692;43.212;27.908;2024-02-23T08:11:55;21.65;;;12.75;;
71038;SDS011;58692;43.212;27.908;2024-02-23T08:14:20;24.30;;;12.20;;
71038;SDS011;58692;43.212;27.908;2024-02-23T08:16:46;21.20;;;12.70;;
71038;SDS011;58692;43.212;27.908;2024-02-23T08:19:12;22.50;;;12.93;;
71038;SDS011;58692;43.212;27.908;2024-02-23T08:21:37;22.50;;;12.48;;
71038;SDS011;58692;43.212;27.908;2024-02-23T08:24:04;21.07;;;12.47;;
71038;SDS011;58692;43.212;27.908;2024-02-23T08:26:30;21.23;;;12.05;;
71038;SDS011;58692;43.212;27.908;2024-02-23T08:29:03;20.67;;;12.98;;
71038;SDS011;58692;43.212;27.908;2024-02-23T08:31:29;21.90;;;12.32;;
71038;SDS011;58692;43.212;27.908;2024-02-23T08:33:55;21.38;;;11.73;;
71038;SDS011;58692;43.212;27.908;2024-02-23T08:36:21;19.00;;;12.00;;
71038;SDS011;58692;43.212;27.908;2024-02-23T08:38:47;17.02;;;11.15;;
71038;SDS011;58692;43.212;27.908;2024-02-23T08:41:15;19.83;;;11.98;;
71038;SDS011;58692;43.212;27.908;2024-02-23T08:43:41;19.37;;;12.90;;
71038;SDS011;58692;43.212;27.908;2024-02-23T08:46:10;24.20;;;12.55;;
71038;SDS011;58692;43.212;27.908;2024-02-23T08:48:35;19.80;;;11.90;;
71038;SDS011;58692;43.212;27.908;2024-02-23T08:51:02;21.25;;;12.18;;
71038;SDS011;58692;43.212;27.908;2024-02-23T08:53:30;22.23;;;13.38;;
71038;SDS011;58692;43.212;27.908;2024-02-23T08:56:06;21.85;;;12.48;;
71038;SDS011;58692;43.212;27.908;2024-02-23T08:58:36;20.83;;;12.07;;
71038;SDS011;58692;43.212;27.908;2024-02-23T09:01:02;21.20;;;12.77;;
71038;SDS011;58692;43.212;27.908;2024-02-23T09:03:29;25.08;;;13.68;;
71038;SDS011;58692;43.212;27.908;2024-02-23T09:05:57;27.60;;;12.68;;
71038;SDS011;58692;43.212;27.908;2024-02-23T09:08:23;21.33;;;12.57;;
71038;SDS011;58692;43.212;27.908;2024-02-23T09:10:49;19.73;;;12.17;;
71038;SDS011;58692;43.212;27.908;2024-02-23T09:13:17;24.15;;;12.45;;
71038;SDS011;58692;43.212;27.908;2024-02-23T09:15:43;21.00;;;12.40;;
71038;SDS011;58692;43.212;27.908;2024-02-23T09:18:09;19.60;;;12.30;;
71038;SDS011;58692;43.212;27.908;2024-02-23T09:20:35;19.90;;;13.02;;
71038;SDS011;58692;43.212;27.908;2024-02-23T09:23:01;20.30;;;11.60;;
71038;SDS011;58692;43.212;27.908;2024-02-23T09:25:26;20.17;;;13.20;;
71038;SDS011;58692;43.212;27.908;2024-02-23T09:27:52;19.30;;;12.17;;
71038;SDS011;58692;43.212;27.908;2024-02-23T09:30:22;21.67;;;12.55;;
71038;SDS011;58692;43.212;27.908;2024-02-23T09:32:47;23.90;;;13.20;;
71038;SDS011;58692;43.212;27.908;2024-02-23T09:35:13;20.85;;;11.38;;
71038;SDS011;58692;43.212;27.908;2024-02-23T09:37:39;20.10;;;12.00;;
71038;SDS011;58692;43.212;27.908;2024-02-23T09:40:05;20.83;;;12.27;;
71038;SDS011;58692;43.212;27.908;2024-02-23T09:42:31;19.25;;;11.43;;
71038;SDS011;58692;43.212;27.908;2024-02-23T09:45:00;22.27;;;11.80;;
71038;SDS011;58692;43.212;27.908;2024-02-23T09:47:27;22.25;;;13.00;;
71038;SDS011;58692;43.212;27.908;2024-02-23T09:49:54;24.17;;;12.80;;
71038;SDS011;58692;43.212;27.908;2024-02-23T09:52:21;18.52;;;12.13;;
71038;SDS011;58692;43.212;27.908;2024-02-23T09:54:48;20.42;;;11.25;;
71038;SDS011;58692;43.212;27.908;2024-02-23T09:57:17;18.47;;;11.43;;
71038;SDS011;58692;43.212;27.908;2024-02-23T09:59:44;17.75;;;11.18;;
71038;SDS011;58692;43.212;27.908;2024-02-23T10:02:14;21.50;;;12.13;;
71038;SDS011;58692;43.212;27.908;2024-02-23T10:04:41;21.52;;;11.88;;
71038;SDS011;58692;43.212;27.908;2024-02-23T10:07:09;16.75;;;10.45;;
71038;SDS011;58692;43.212;27.908;2024-02-23T10:09:35;17.63;;;10.57;;
71038;SDS011;58692;43.212;27.908;2024-02-23T10:12:02;21.95;;;11.02;;
71038;SDS011;58692;43.212;27.908;2024-02-23T10:14:29;19.23;;;10.93;;
71038;SDS011;58692;43.212;27.908;2024-02-23T10:16:54;21.33;;;13.10;;
71038;SDS011;58692;43.212;27.908;2024-02-23T10:19:21;18.55;;;11.52;;
71038;SDS011;58692;43.212;27.908;2024-02-23T10:21:54;17.85;;;11.13;;
71038;SDS011;58692;43.212;27.908;2024-02-23T10:24:20;22.08;;;12.02;;
71038;SDS011;58692;43.212;27.908;2024-02-23T10:26:46;19.43;;;11.50;;
71038;SDS011;58692;43.212;27.908;2024-02-23T10:29:12;19.52;;;12.10;;
71038;SDS011;58692;43.212;27.908;2024-02-23T10:31:37;21.17;;;11.30;;
71038;SDS011;58692;43.212;27.908;2024-02-23T10:34:08;19.70;;;11.33;;
71038;SDS011;58692;43.212;27.908;2024-02-23T10:36:40;17.40;;;10.65;;
71038;SDS011;58692;43.212;27.908;2024-02-23T10:39:09;20.00;;;11.35;;
71038;SDS011;58692;43.212;27.908;2024-02-23T10:41:36;21.02;;;11.05;;
71038;SDS011;58692;43.212;27.908;2024-02-23T10:44:06;16.08;;;10.70;;
71038;SDS011;58692;43.212;27.908;2024-02-23T10:46:35;17.47;;;10.23;;
71038;SDS011;58692;43.212;27.908;2024-02-23T10:49:02;19.25;;;10.82;;
71038;SDS011;58692;43.212;27.908;2024-02-23T10:51:29;19.15;;;10.65;;
71038;SDS011;58692;43.212;27.908;2024-02-23T10:54:00;16.10;;;10.20;;
71038;SDS011;58692;43.212;27.908;2024-02-23T10:56:28;17.67;;;10.63;;
71038;SDS011;58692;43.212;27.908;2024-02-23T10:58:54;15.97;;;9.83;;
71038;SDS011;58692;43.212;27.908;2024-02-23T11:01:20;21.63;;;10.25;;
71038;SDS011;58692;43.212;27.908;2024-02-23T11:03:48;19.58;;;10.82;;
71038;SDS011;58692;43.212;27.908;2024-02-23T11:06:16;18.08;;;10.15;;
71038;SDS011;58692;43.212;27.908;2024-02-23T11:08:46;19.95;;;10.90;;
71038;SDS011;58692;43.212;27.908;2024-02-23T11:11:20;15.23;;;9.60;;
71038;SDS011;58692;43.212;27.908;2024-02-23T11:13:48;16.08;;;10.07;;
71038;SDS011;58692;43.212;27.908;2024-02-23T11:16:28;18.10;;;10.38;;
71038;SDS011;58692;43.212;27.908;2024-02-23T11:19:04;16.17;;;9.20;;
71038;SDS011;58692;43.212;27.908;2024-02-23T11:21:34;15.75;;;9.23;;
71038;SDS011;58692;43.212;27.908;2024-02-23T11:24:03;17.48;;;9.75;;
71038;SDS011;58692;43.212;27.908;2024-02-23T11:26:32;15.55;;;9.40;;
71038;SDS011;58692;43.212;27.908;2024-02-23T11:28:59;18.10;;;9.85;;
71038;SDS011;58692;43.212;27.908;2024-02-23T11:31:29;15.53;;;9.30;;
71038;SDS011;58692;43.212;27.908;2024-02-23T11:33:56;18.50;;;9.98;;
71038;SDS011;58692;43.212;27.908;2024-02-23T11:38:53;16.20;;;9.37;;
71038;SDS011;58692;43.212;27.908;2024-02-23T11:41:22;18.08;;;9.98;;
71038;SDS011;58692;43.212;27.908;2024-02-23T11:43:49;19.50;;;11.05;;
71038;SDS011;58692;43.212;27.908;2024-02-23T11:46:16;21.90;;;11.95;;
71038;SDS011;58692;43.212;27.908;2024-02-23T11:48:43;22.10;;;11.52;;
71038;SDS011;58692;43.212;27.908;2024-02-23T11:51:11;20.37;;;11.30;;
71038;SDS011;58692;43.212;27.908;2024-02-23T11:53:38;17.45;;;11.25;;
71038;SDS011;58692;43.212;27.908;2024-02-23T11:56:05;20.42;;;11.32;;
71038;SDS011;58692;43.212;27.908;2024-02-23T11:58:32;21.52;;;10.93;;
71038;SDS011;58692;43.212;27.908;2024-02-23T12:01:02;21.33;;;11.07;;
71038;SDS011;58692;43.212;27.908;2024-02-23T12:03:28;20.23;;;11.47;;
71038;SDS011;58692;43.212;27.908;2024-02-23T12:05:57;18.80;;;11.18;;
71038;SDS011;58692;43.212;27.908;2024-02-23T12:08:25;19.27;;;10.90;;
71038;SDS011;58692;43.212;27.908;2024-02-23T12:10:54;20.50;;;12.40;;
71038;SDS011;58692;43.212;27.908;2024-02-23T12:13:32;20.35;;;11.52;;
71038;SDS011;58692;43.212;27.908;2024-02-23T12:16:01;17.90;;;10.90;;
71038;SDS011;58692;43.212;27.908;2024-02-23T12:18:28;19.65;;;12.18;;
71038;SDS011;58692;43.212;27.908;2024-02-23T12:21:04;22.17;;;12.40;;
71038;SDS011;58692;43.212;27.908;2024-02-23T12:23:45;23.17;;;12.77;;
71038;SDS011;58692;43.212;27.908;2024-02-23T12:26:12;20.48;;;11.75;;
71038;SDS011;58692;43.212;27.908;2024-02-23T12:28:39;21.70;;;12.70;;
71038;SDS011;58692;43.212;27.908;2024-02-23T12:31:06;21.33;;;12.25;;
71038;SDS011;58692;43.212;27.908;2024-02-23T12:33:32;25.25;;;12.93;;
71038;SDS011;58692;43.212;27.908;2024-02-23T12:35:59;21.85;;;12.57;;
71038;SDS011;58692;43.212;27.908;2024-02-23T12:38:27;23.83;;;12.82;;
71038;SDS011;58692;43.212;27.908;2024-02-23T12:40:53;21.33;;;11.17;;
71038;SDS011;58692;43.212;27.908;2024-02-23T12:43:19;21.85;;;12.48;;
71038;SDS011;58692;43.212;27.908;2024-02-23T12:45:49;23.95;;;12.73;;
71038;SDS011;58692;43.212;27.908;2024-02-23T12:48:16;24.15;;;12.70;;
71038;SDS011;58692;43.212;27.908;2024-02-23T12:50:43;25.65;;;12.80;;
71038;SDS011;58692;43.212;27.908;2024-02-23T12:53:12;21.27;;;12.57;;
71038;SDS011;58692;43.212;27.908;2024-02-23T12:56:04;22.17;;;13.73;;
71038;SDS011;58692;43.212;27.908;2024-02-23T12:58:33;22.35;;;13.63;;
71038;SDS011;58692;43.212;27.908;2024-02-23T13:00:59;22.25;;;12.65;;
71038;SDS011;58692;43.212;27.908;2024-02-23T13:03:28;21.30;;;12.90;;
71038;SDS011;58692;43.212;27.908;2024-02-23T13:05:54;21.27;;;12.73;;
71038;SDS011;58692;43.212;27.908;2024-02-23T13:08:23;22.85;;;13.55;;
71038;SDS011;58692;43.212;27.908;2024-02-23T13:10:50;21.60;;;13.05;;
71038;SDS011;58692;43.212;27.908;2024-02-23T13:13:16;24.45;;;13.98;;
71038;SDS011;58692;43.212;27.908;2024-02-23T13:15:42;23.33;;;12.43;;
71038;SDS011;58692;43.212;27.908;2024-02-23T13:18:09;25.30;;;13.15;;
71038;SDS011;58692;43.212;27.908;2024-02-23T13:20:36;24.27;;;12.43;;
71038;SDS011;58692;43.212;27.908;2024-02-23T13:23:03;25.63;;;12.77;;
71038;SDS011;58692;43.212;27.908;2024-02-23T13:25:32;22.30;;;13.07;;
71038;SDS011;58692;43.212;27.908;2024-02-23T13:27:58;25.57;;;13.50;;
71038;SDS011;58692;43.212;27.908;2024-02-23T13:30:24;23.42;;;12.68;;
71038;SDS011;58692;43.212;27.908;2024-02-23T13:32:53;24.90;;;14.23;;
71038;SDS011;58692;43.212;27.908;2024-02-23T13:35:19;25.95;;;13.77;;
71038;SDS011;58692;43.212;27.908;2024-02-23T13:37:52;26.07;;;12.70;;
71038;SDS011;58692;43.212;27.908;2024-02-23T13:40:18;23.70;;;13.10;;
71038;SDS011;58692;43.212;27.908;2024-02-23T13:42:51;26.08;;;13.73;;
71038;SDS011;58692;43.212;27.908;2024-02-23T13:45:18;24.20;;;12.82;;
71038;SDS011;58692;43.212;27.908;2024-02-23T13:47:54;25.48;;;12.60;;
71038;SDS011;58692;43.212;27.908;2024-02-23T13:50:21;22.17;;;12.23;;
71038;SDS011;58692;43.212;27.908;2024-02-23T13:52:47;25.20;;;13.10;;
71038;SDS011;58692;43.212;27.908;2024-02-23T13:55:13;24.77;;;13.35;;
71038;SDS011;58692;43.212;27.908;2024-02-23T13:57:39;25.90;;;13.60;;
71038;SDS011;58692;43.212;27.908;2024-02-23T14:00:05;22.08;;;12.35;;
71038;SDS011;58692;43.212;27.908;2024-02-23T14:02:38;24.58;;;12.35;;
71038;SDS011;58692;43.212;27.908;2024-02-23T14:05:05;21.45;;;12.00;;
71038;SDS011;58692;43.212;27.908;2024-02-23T14:07:32;24.30;;;11.48;;
71038;SDS011;58692;43.212;27.908;2024-02-23T14:09:58;23.43;;;12.40;;